sensor_id;sensor_type;location;lat;lon;timestamp;pressure;altitude;pressure_sealevel;temperature;humidity
68793;BME280;55778;54.346;10.210;2023-01-29T00:01:40;102189.84;;;3.58;100.00
68793;BME280;55778;54.346;10.210;2023-01-29T00:04:07;102189.09;;;3.55;100.00
68793;BME280;55778;54.346;10.210;2023-01-29T00:06:33;102180.53;;;3.65;100.00
68793;BME280;55778;54.346;10.210;2023-01-29T00:08:58;102182.66;;;3.59;100.00
68793;BME280;55778;54.346;10.210;2023-01-29T00:11:24;102185.22;;;3.62;100.00
68793;BME280;55778;54.346;10.210;2023-01-29T00:13:50;102186.34;;;3.56;100.00
68793;BME280;55778;54.346;10.210;2023-01-29T00:16:15;102186.47;;;3.53;100.00
68793;BME280;55778;54.346;10.210;2023-01-29T00:18:41;102187.63;;;3.48;100.00
68793;BME280;55778;54.346;10.210;2023-01-29T00:21:24;102181.78;;;3.58;100.00
68793;BME280;55778;54.346;10.210;2023-01-29T00:23:50;102186.28;;;3.58;100.00
68793;BME280;55778;54.346;10.210;2023-01-29T00:26:16;102183.19;;;3.67;100.00
68793;BME280;55778;54.346;10.210;2023-01-29T00:28:41;102186.13;;;3.61;100.00
68793;BME280;55778;54.346;10.210;2023-01-29T00:31:12;102186.22;;;3.59;100.00
68793;BME280;55778;54.346;10.210;2023-01-29T00:33:38;102178.13;;;3.59;100.00
68793;BME280;55778;54.346;10.210;2023-01-29T00:36:05;102177.59;;;3.71;100.00
68793;BME280;55778;54.346;10.210;2023-01-29T00:38:32;102166.06;;;3.68;100.00
68793;BME280;55778;54.346;10.210;2023-01-29T00:41:04;102168.84;;;3.66;100.00
68793;BME280;55778;54.346;10.210;2023-01-29T00:43:48;102161.34;;;3.73;100.00
68793;BME280;55778;54.346;10.210;2023-01-29T00:46:32;102159.00;;;3.65;100.00
68793;BME280;55778;54.346;10.210;2023-01-29T00:48:57;102156.22;;;3.67;100.00
68793;BME280;55778;54.346;10.210;2023-01-29T00:51:23;102168.91;;;3.65;100.00
68793;BME280;55778;54.346;10.210;2023-01-29T00:53:48;102163.09;;;3.74;100.00
68793;BME280;55778;54.346;10.210;2023-01-29T00:56:13;102160.94;;;3.82;100.00
68793;BME280;55778;54.346;10.210;2023-01-29T00:58:39;102150.16;;;3.82;100.00
68793;BME280;55778;54.346;10.210;2023-01-29T01:01:04;102155.53;;;3.82;100.00
68793;BME280;55778;54.346;10.210;2023-01-29T01:03:29;102153.88;;;3.79;100.00
68793;BME280;55778;54.346;10.210;2023-01-29T01:06:05;102160.59;;;3.69;100.00
68793;BME280;55778;54.346;10.210;2023-01-29T01:08:31;102160.91;;;3.63;100.00
68793;BME280;55778;54.346;10.210;2023-01-29T01:11:15;102159.06;;;3.64;100.00
68793;BME280;55778;54.346;10.210;2023-01-29T01:13:40;102159.06;;;3.84;100.00
68793;BME280;55778;54.346;10.210;2023-01-29T01:16:14;102163.63;;;3.82;100.00
68793;BME280;55778;54.346;10.210;2023-01-29T01:18:40;102163.09;;;3.74;100.00
68793;BME280;55778;54.346;10.210;2023-01-29T01:21:05;102164.94;;;3.73;100.00
68793;BME280;55778;54.346;10.210;2023-01-29T01:23:31;102155.75;;;3.77;100.00
68793;BME280;55778;54.346;10.210;2023-01-29T01:25:57;102147.44;;;3.82;100.00
68793;BME280;55778;54.346;10.210;2023-01-29T01:28:23;102139.50;;;3.79;100.00
68793;BME280;55778;54.346;10.210;2023-01-29T01:30:48;102136.19;;;3.72;100.00
68793;BME280;55778;54.346;10.210;2023-01-29T01:33:14;102137.81;;;3.76;100.00
68793;BME280;55778;54.346;10.210;2023-01-29T01:35:39;102135.19;;;3.75;100.00
68793;BME280;55778;54.346;10.210;2023-01-29T01:38:05;102128.56;;;3.82;100.00
68793;BME280;55778;54.346;10.210;2023-01-29T01:40:31;102118.69;;;3.82;100.00
68793;BME280;55778;54.346;10.210;2023-01-29T01:42:59;102111.00;;;3.73;100.00
68793;BME280;55778;54.346;10.210;2023-01-29T01:45:30;102114.56;;;3.74;100.00
68793;BME280;55778;54.346;10.210;2023-01-29T01:48:12;102111.38;;;3.84;100.00
68793;BME280;55778;54.346;10.210;2023-01-29T01:51:02;102129.81;;;3.75;100.00
68793;BME280;55778;54.346;10.210;2023-01-29T01:53:32;102125.72;;;3.66;100.00
68793;BME280;55778;54.346;10.210;2023-01-29T01:56:01;102130.59;;;3.77;100.00
68793;BME280;55778;54.346;10.210;2023-01-29T01:58:33;102116.34;;;3.75;100.00
68793;BME280;55778;54.346;10.210;2023-01-29T02:01:03;102122.78;;;3.71;100.00
68793;BME280;55778;54.346;10.210;2023-01-29T02:03:34;102118.47;;;3.67;100.00
68793;BME280;55778;54.346;10.210;2023-01-29T02:06:21;102115.25;;;3.79;100.00
68793;BME280;55778;54.346;10.210;2023-01-29T02:09:31;102112.75;;;3.74;100.00
68793;BME280;55778;54.346;10.210;2023-01-29T02:12:07;102096.56;;;3.74;100.00
68793;BME280;55778;54.346;10.210;2023-01-29T02:14:34;102094.41;;;3.82;100.00
68793;BME280;55778;54.346;10.210;2023-01-29T02:17:03;102087.09;;;3.84;100.00
68793;BME280;55778;54.346;10.210;2023-01-29T02:28:34;102074.31;;;3.89;100.00
68793;BME280;55778;54.346;10.210;2023-01-29T02:39:33;102051.84;;;3.89;100.00
68793;BME280;55778;54.346;10.210;2023-01-29T02:42:30;102051.69;;;3.92;100.00
68793;BME280;55778;54.346;10.210;2023-01-29T02:47:44;102033.66;;;3.94;100.00
68793;BME280;55778;54.346;10.210;2023-01-29T02:50:20;102032.03;;;3.90;100.00
68793;BME280;55778;54.346;10.210;2023-01-29T02:52:56;102036.13;;;3.98;100.00
68793;BME280;55778;54.346;10.210;2023-01-29T02:57:56;102026.38;;;3.96;100.00
68793;BME280;55778;54.346;10.210;2023-01-29T03:00:36;102020.06;;;4.14;100.00
68793;BME280;55778;54.346;10.210;2023-01-29T03:03:16;102016.13;;;4.02;100.00
68793;BME280;55778;54.346;10.210;2023-01-29T03:05:51;102021.59;;;4.01;100.00
68793;BME280;55778;54.346;10.210;2023-01-29T03:08:34;102022.78;;;3.95;100.00
68793;BME280;55778;54.346;10.210;2023-01-29T03:11:09;102019.94;;;3.98;100.00
68793;BME280;55778;54.346;10.210;2023-01-29T03:13:52;102016.22;;;4.01;100.00
68793;BME280;55778;54.346;10.210;2023-01-29T03:16:33;102024.00;;;4.07;100.00
68793;BME280;55778;54.346;10.210;2023-01-29T03:19:03;102026.22;;;3.99;100.00
68793;BME280;55778;54.346;10.210;2023-01-29T03:21:39;102022.03;;;3.92;100.00
68793;BME280;55778;54.346;10.210;2023-01-29T03:24:29;102020.22;;;3.92;100.00
68793;BME280;55778;54.346;10.210;2023-01-29T03:27:18;102023.22;;;3.86;100.00
68793;BME280;55778;54.346;10.210;2023-01-29T03:30:06;102026.00;;;3.85;100.00
68793;BME280;55778;54.346;10.210;2023-01-29T03:32:55;102014.97;;;3.89;100.00
68793;BME280;55778;54.346;10.210;2023-01-29T03:35:24;102009.28;;;3.77;100.00
68793;BME280;55778;54.346;10.210;2023-01-29T03:38:02;102028.16;;;3.77;100.00
68793;BME280;55778;54.346;10.210;2023-01-29T03:40:35;102021.97;;;3.75;100.00
68793;BME280;55778;54.346;10.210;2023-01-29T03:43:11;102018.13;;;3.80;100.00
68793;BME280;55778;54.346;10.210;2023-01-29T03:48:38;102027.44;;;3.73;100.00
68793;BME280;55778;54.346;10.210;2023-01-29T03:53:50;102034.50;;;3.76;100.00
68793;BME280;55778;54.346;10.210;2023-01-29T03:59:43;102035.31;;;3.78;100.00
68793;BME280;55778;54.346;10.210;2023-01-29T04:02:15;102034.66;;;3.73;100.00
68793;BME280;55778;54.346;10.210;2023-01-29T04:04:45;102038.31;;;3.72;100.00
68793;BME280;55778;54.346;10.210;2023-01-29T04:07:16;102046.09;;;3.78;100.00
68793;BME280;55778;54.346;10.210;2023-01-29T04:09:47;102033.84;;;3.71;100.00
68793;BME280;55778;54.346;10.210;2023-01-29T04:12:18;102039.75;;;3.79;100.00
68793;BME280;55778;54.346;10.210;2023-01-29T04:14:46;102033.63;;;3.75;100.00
68793;BME280;55778;54.346;10.210;2023-01-29T04:17:22;102032.97;;;3.70;100.00
68793;BME280;55778;54.346;10.210;2023-01-29T04:19:49;102028.59;;;3.68;100.00
68793;BME280;55778;54.346;10.210;2023-01-29T04:22:20;102022.56;;;3.63;100.00
68793;BME280;55778;54.346;10.210;2023-01-29T04:24:48;102020.34;;;3.71;100.00
68793;BME280;55778;54.346;10.210;2023-01-29T04:27:46;102024.69;;;3.75;100.00
68793;BME280;55778;54.346;10.210;2023-01-29T04:30:27;102015.34;;;3.82;100.00
68793;BME280;55778;54.346;10.210;2023-01-29T04:33:30;102000.41;;;3.75;100.00
68793;BME280;55778;54.346;10.210;2023-01-29T04:41:21;101992.59;;;3.87;100.00
68793;BME280;55778;54.346;10.210;2023-01-29T04:44:04;101994.88;;;3.78;100.00
68793;BME280;55778;54.346;10.210;2023-01-29T04:46:56;101984.59;;;3.67;100.00
68793;BME280;55778;54.346;10.210;2023-01-29T04:49:49;101996.97;;;3.71;100.00
68793;BME280;55778;54.346;10.210;2023-01-29T04:55:14;101996.25;;;3.68;100.00
68793;BME280;55778;54.346;10.210;2023-01-29T04:57:56;101982.78;;;3.86;100.00
68793;BME280;55778;54.346;10.210;2023-01-29T05:00:31;101988.38;;;3.82;100.00
68793;BME280;55778;54.346;10.210;2023-01-29T05:03:00;101986.50;;;3.84;100.00
68793;BME280;55778;54.346;10.210;2023-01-29T05:05:27;101984.66;;;3.84;100.00
68793;BME280;55778;54.346;10.210;2023-01-29T05:07:54;101974.41;;;3.92;100.00
68793;BME280;55778;54.346;10.210;2023-01-29T05:10:22;101973.50;;;3.92;100.00
68793;BME280;55778;54.346;10.210;2023-01-29T05:12:53;101977.69;;;3.99;100.00
68793;BME280;55778;54.346;10.210;2023-01-29T05:15:27;101980.75;;;3.91;100.00
68793;BME280;55778;54.346;10.210;2023-01-29T05:17:54;101973.81;;;3.86;100.00
68793;BME280;55778;54.346;10.210;2023-01-29T05:20:26;101984.72;;;3.83;100.00
68793;BME280;55778;54.346;10.210;2023-01-29T05:22:52;101995.72;;;3.78;100.00
68793;BME280;55778;54.346;10.210;2023-01-29T05:25:21;101984.59;;;3.86;100.00
68793;BME280;55778;54.346;10.210;2023-01-29T05:27:48;101979.78;;;3.74;100.00
68793;BME280;55778;54.346;10.210;2023-01-29T05:30:34;101968.78;;;3.97;100.00
68793;BME280;55778;54.346;10.210;2023-01-29T05:33:00;101957.84;;;4.00;100.00
68793;BME280;55778;54.346;10.210;2023-01-29T05:35:25;101956.81;;;4.02;100.00
68793;BME280;55778;54.346;10.210;2023-01-29T05:37:54;101951.63;;;3.98;100.00
68793;BME280;55778;54.346;10.210;2023-01-29T05:40:23;101954.78;;;4.07;100.00
68793;BME280;55778;54.346;10.210;2023-01-29T05:42:49;101962.13;;;4.04;100.00
68793;BME280;55778;54.346;10.210;2023-01-29T05:45:16;101950.31;;;4.06;100.00
68793;BME280;55778;54.346;10.210;2023-01-29T05:47:41;101940.16;;;3.94;100.00
68793;BME280;55778;54.346;10.210;2023-01-29T05:50:07;101943.44;;;4.18;100.00
68793;BME280;55778;54.346;10.210;2023-01-29T05:52:33;101925.31;;;4.03;100.00
68793;BME280;55778;54.346;10.210;2023-01-29T05:54:58;101937.06;;;4.02;100.00
68793;BME280;55778;54.346;10.210;2023-01-29T05:57:23;101935.97;;;4.06;100.00
68793;BME280;55778;54.346;10.210;2023-01-29T05:59:49;101925.72;;;4.12;100.00
68793;BME280;55778;54.346;10.210;2023-01-29T06:02:14;101923.53;;;4.21;100.00
68793;BME280;55778;54.346;10.210;2023-01-29T06:04:40;101911.09;;;4.18;100.00
68793;BME280;55778;54.346;10.210;2023-01-29T06:07:05;101902.03;;;4.19;100.00
68793;BME280;55778;54.346;10.210;2023-01-29T06:09:30;101904.50;;;4.24;100.00
68793;BME280;55778;54.346;10.210;2023-01-29T06:11:56;101905.59;;;4.20;100.00
68793;BME280;55778;54.346;10.210;2023-01-29T06:14:21;101906.16;;;4.09;100.00
68793;BME280;55778;54.346;10.210;2023-01-29T06:16:47;101906.00;;;4.12;100.00
68793;BME280;55778;54.346;10.210;2023-01-29T06:19:12;101919.47;;;4.12;100.00
68793;BME280;55778;54.346;10.210;2023-01-29T06:21:37;101918.81;;;4.07;100.00
68793;BME280;55778;54.346;10.210;2023-01-29T06:24:03;101900.91;;;4.23;100.00
68793;BME280;55778;54.346;10.210;2023-01-29T06:26:28;101901.13;;;4.18;100.00
68793;BME280;55778;54.346;10.210;2023-01-29T06:28:54;101911.16;;;4.17;100.00
68793;BME280;55778;54.346;10.210;2023-01-29T06:31:19;101889.16;;;4.07;100.00
68793;BME280;55778;54.346;10.210;2023-01-29T06:33:45;101889.19;;;4.24;100.00
68793;BME280;55778;54.346;10.210;2023-01-29T06:36:10;101893.06;;;4.18;100.00
68793;BME280;55778;54.346;10.210;2023-01-29T06:38:36;101890.59;;;4.14;100.00
68793;BME280;55778;54.346;10.210;2023-01-29T06:41:12;101885.75;;;4.21;100.00
68793;BME280;55778;54.346;10.210;2023-01-29T06:43:38;101882.56;;;4.12;100.00
68793;BME280;55778;54.346;10.210;2023-01-29T06:46:06;101881.06;;;4.07;100.00
68793;BME280;55778;54.346;10.210;2023-01-29T06:48:32;101876.09;;;4.17;100.00
68793;BME280;55778;54.346;10.210;2023-01-29T06:51:04;101872.75;;;4.11;100.00
68793;BME280;55778;54.346;10.210;2023-01-29T06:53:30;101869.88;;;4.14;100.00
68793;BME280;55778;54.346;10.210;2023-01-29T06:55:56;101860.06;;;4.13;100.00
68793;BME280;55778;54.346;10.210;2023-01-29T06:58:21;101850.53;;;4.24;100.00
68793;BME280;55778;54.346;10.210;2023-01-29T07:00:47;101860.78;;;4.34;100.00
68793;BME280;55778;54.346;10.210;2023-01-29T07:03:12;101854.88;;;4.26;100.00
68793;BME280;55778;54.346;10.210;2023-01-29T07:05:38;101851.63;;;4.37;100.00
68793;BME280;55778;54.346;10.210;2023-01-29T07:08:03;101857.28;;;4.32;100.00
68793;BME280;55778;54.346;10.210;2023-01-29T07:10:29;101858.56;;;4.25;100.00
68793;BME280;55778;54.346;10.210;2023-01-29T07:12:57;101849.81;;;4.20;100.00
68793;BME280;55778;54.346;10.210;2023-01-29T07:15:23;101859.50;;;4.24;100.00
68793;BME280;55778;54.346;10.210;2023-01-29T07:18:14;101853.97;;;4.27;100.00
68793;BME280;55778;54.346;10.210;2023-01-29T07:20:41;101857.91;;;4.20;100.00
68793;BME280;55778;54.346;10.210;2023-01-29T07:23:13;101865.00;;;4.23;100.00
68793;BME280;55778;54.346;10.210;2023-01-29T07:25:39;101849.34;;;4.29;100.00
68793;BME280;55778;54.346;10.210;2023-01-29T07:28:05;101847.59;;;4.28;100.00
68793;BME280;55778;54.346;10.210;2023-01-29T07:30:30;101858.09;;;4.34;100.00
68793;BME280;55778;54.346;10.210;2023-01-29T07:33:04;101860.63;;;4.37;100.00
68793;BME280;55778;54.346;10.210;2023-01-29T07:35:30;101850.22;;;4.30;100.00
68793;BME280;55778;54.346;10.210;2023-01-29T07:37:55;101836.34;;;4.37;100.00
68793;BME280;55778;54.346;10.210;2023-01-29T07:40:20;101846.19;;;4.21;100.00
68793;BME280;55778;54.346;10.210;2023-01-29T07:42:46;101847.28;;;4.17;100.00
68793;BME280;55778;54.346;10.210;2023-01-29T07:45:12;101854.44;;;4.18;100.00
68793;BME280;55778;54.346;10.210;2023-01-29T07:47:38;101848.47;;;4.11;100.00
68793;BME280;55778;54.346;10.210;2023-01-29T07:50:04;101844.56;;;4.17;100.00
68793;BME280;55778;54.346;10.210;2023-01-29T07:52:31;101849.50;;;4.09;100.00
68793;BME280;55778;54.346;10.210;2023-01-29T07:54:56;101850.03;;;4.15;100.00
68793;BME280;55778;54.346;10.210;2023-01-29T07:57:22;101843.06;;;4.11;100.00
68793;BME280;55778;54.346;10.210;2023-01-29T07:59:47;101844.03;;;4.10;100.00
68793;BME280;55778;54.346;10.210;2023-01-29T08:02:13;101852.38;;;4.06;100.00
68793;BME280;55778;54.346;10.210;2023-01-29T08:04:38;101857.53;;;4.10;100.00
68793;BME280;55778;54.346;10.210;2023-01-29T08:07:04;101862.03;;;4.10;100.00
68793;BME280;55778;54.346;10.210;2023-01-29T08:09:30;101856.88;;;4.05;100.00
68793;BME280;55778;54.346;10.210;2023-01-29T08:11:56;101870.59;;;4.01;100.00
68793;BME280;55778;54.346;10.210;2023-01-29T08:14:22;101861.72;;;4.16;100.00
68793;BME280;55778;54.346;10.210;2023-01-29T08:16:47;101860.84;;;3.98;100.00
68793;BME280;55778;54.346;10.210;2023-01-29T08:19:13;101858.28;;;4.12;100.00
68793;BME280;55778;54.346;10.210;2023-01-29T08:21:38;101855.59;;;4.12;100.00
68793;BME280;55778;54.346;10.210;2023-01-29T08:24:04;101853.06;;;4.09;100.00
68793;BME280;55778;54.346;10.210;2023-01-29T08:26:29;101846.97;;;4.06;100.00
68793;BME280;55778;54.346;10.210;2023-01-29T08:28:55;101846.72;;;4.10;100.00
68793;BME280;55778;54.346;10.210;2023-01-29T08:31:20;101836.78;;;4.11;100.00
68793;BME280;55778;54.346;10.210;2023-01-29T08:33:46;101839.41;;;4.12;100.00
68793;BME280;55778;54.346;10.210;2023-01-29T08:36:11;101845.19;;;4.05;100.00
68793;BME280;55778;54.346;10.210;2023-01-29T08:38:37;101838.66;;;4.10;100.00
68793;BME280;55778;54.346;10.210;2023-01-29T08:41:02;101835.56;;;4.18;100.00
68793;BME280;55778;54.346;10.210;2023-01-29T08:43:28;101837.53;;;4.14;100.00
68793;BME280;55778;54.346;10.210;2023-01-29T08:45:53;101834.19;;;4.09;100.00
68793;BME280;55778;54.346;10.210;2023-01-29T08:48:19;101834.91;;;4.13;100.00
68793;BME280;55778;54.346;10.210;2023-01-29T08:50:44;101818.88;;;4.10;100.00
68793;BME280;55778;54.346;10.210;2023-01-29T08:53:10;101802.25;;;4.02;100.00
68793;BME280;55778;54.346;10.210;2023-01-29T08:55:36;101803.91;;;4.04;100.00
68793;BME280;55778;54.346;10.210;2023-01-29T08:58:03;101808.56;;;4.18;100.00
68793;BME280;55778;54.346;10.210;2023-01-29T09:00:30;101802.63;;;4.11;100.00
68793;BME280;55778;54.346;10.210;2023-01-29T09:02:56;101803.09;;;4.20;100.00
68793;BME280;55778;54.346;10.210;2023-01-29T09:05:23;101801.66;;;4.12;100.00
68793;BME280;55778;54.346;10.210;2023-01-29T09:07:49;101809.13;;;4.07;100.00
68793;BME280;55778;54.346;10.210;2023-01-29T09:10:14;101806.81;;;4.17;100.00
68793;BME280;55778;54.346;10.210;2023-01-29T09:12:40;101790.63;;;4.17;100.00
68793;BME280;55778;54.346;10.210;2023-01-29T09:15:06;101797.78;;;4.18;100.00
68793;BME280;55778;54.346;10.210;2023-01-29T09:17:31;101800.00;;;4.10;100.00
68793;BME280;55778;54.346;10.210;2023-01-29T09:19:57;101798.59;;;4.03;100.00
68793;BME280;55778;54.346;10.210;2023-01-29T09:22:22;101790.38;;;3.87;100.00
68793;BME280;55778;54.346;10.210;2023-01-29T09:24:48;101784.59;;;3.95;100.00
68793;BME280;55778;54.346;10.210;2023-01-29T09:27:13;101767.94;;;4.04;100.00
68793;BME280;55778;54.346;10.210;2023-01-29T09:29:39;101770.88;;;3.99;100.00
68793;BME280;55778;54.346;10.210;2023-01-29T09:32:04;101776.19;;;4.01;100.00
68793;BME280;55778;54.346;10.210;2023-01-29T09:34:30;101770.34;;;3.93;100.00
68793;BME280;55778;54.346;10.210;2023-01-29T09:36:55;101788.66;;;3.86;100.00
68793;BME280;55778;54.346;10.210;2023-01-29T09:39:20;101778.22;;;3.97;100.00
68793;BME280;55778;54.346;10.210;2023-01-29T09:41:59;101763.44;;;3.87;100.00
68793;BME280;55778;54.346;10.210;2023-01-29T09:46:52;101762.41;;;4.07;100.00
68793;BME280;55778;54.346;10.210;2023-01-29T09:49:24;101766.47;;;3.98;100.00
68793;BME280;55778;54.346;10.210;2023-01-29T09:52:36;101765.81;;;3.93;100.00
68793;BME280;55778;54.346;10.210;2023-01-29T09:54:56;101758.84;;;3.89;100.00
68793;BME280;55778;54.346;10.210;2023-01-29T10:00:19;101758.91;;;3.88;100.00
68793;BME280;55778;54.346;10.210;2023-01-29T10:08:28;101739.50;;;3.98;100.00
68793;BME280;55778;54.346;10.210;2023-01-29T10:11:07;101739.31;;;3.84;100.00
68793;BME280;55778;54.346;10.210;2023-01-29T10:13:49;101745.75;;;3.82;100.00
68793;BME280;55778;54.346;10.210;2023-01-29T10:21:41;101721.09;;;3.89;100.00
68793;BME280;55778;54.346;10.210;2023-01-29T10:26:38;101711.88;;;3.93;100.00
68793;BME280;55778;54.346;10.210;2023-01-29T10:29:06;101713.94;;;4.05;100.00
68793;BME280;55778;54.346;10.210;2023-01-29T10:31:36;101701.66;;;4.00;100.00
68793;BME280;55778;54.346;10.210;2023-01-29T10:34:12;101701.66;;;4.00;100.00
68793;BME280;55778;54.346;10.210;2023-01-29T10:36:47;101690.00;;;3.99;100.00
68793;BME280;55778;54.346;10.210;2023-01-29T10:39:20;101694.72;;;4.11;100.00
68793;BME280;55778;54.346;10.210;2023-01-29T10:55:37;101661.41;;;4.12;100.00
68793;BME280;55778;54.346;10.210;2023-01-29T11:00:36;101657.47;;;4.02;100.00
68793;BME280;55778;54.346;10.210;2023-01-29T11:19:45;101622.53;;;4.17;100.00
68793;BME280;55778;54.346;10.210;2023-01-29T11:22:33;101627.78;;;4.20;100.00
68793;BME280;55778;54.346;10.210;2023-01-29T11:25:19;101615.56;;;4.12;100.00
68793;BME280;55778;54.346;10.210;2023-01-29T11:28:09;101616.34;;;4.14;100.00
68793;BME280;55778;54.346;10.210;2023-01-29T11:30:56;101598.34;;;4.15;100.00
68793;BME280;55778;54.346;10.210;2023-01-29T11:33:42;101599.28;;;4.14;100.00
68793;BME280;55778;54.346;10.210;2023-01-29T12:18:10;101527.44;;;4.29;100.00
68793;BME280;55778;54.346;10.210;2023-01-29T12:21:03;101515.78;;;4.28;100.00
68793;BME280;55778;54.346;10.210;2023-01-29T12:24:02;101521.44;;;4.39;100.00
68793;BME280;55778;54.346;10.210;2023-01-29T12:26:59;101509.50;;;4.43;100.00
68793;BME280;55778;54.346;10.210;2023-01-29T12:34:49;101502.69;;;4.52;100.00
68793;BME280;55778;54.346;10.210;2023-01-29T12:37:31;101509.19;;;4.63;100.00
68793;BME280;55778;54.346;10.210;2023-01-29T12:40:01;101491.97;;;4.66;100.00
68793;BME280;55778;54.346;10.210;2023-01-29T12:42:27;101486.69;;;4.78;100.00
68793;BME280;55778;54.346;10.210;2023-01-29T12:44:58;101482.53;;;4.73;100.00
68793;BME280;55778;54.346;10.210;2023-01-29T12:47:41;101473.88;;;4.82;100.00
68793;BME280;55778;54.346;10.210;2023-01-29T12:58:09;101471.28;;;4.51;100.00
68793;BME280;55778;54.346;10.210;2023-01-29T13:00:43;101463.72;;;4.42;100.00
68793;BME280;55778;54.346;10.210;2023-01-29T13:05:44;101459.88;;;4.46;100.00
68793;BME280;55778;54.346;10.210;2023-01-29T13:08:35;101456.88;;;4.36;100.00
68793;BME280;55778;54.346;10.210;2023-01-29T13:11:05;101457.97;;;4.32;100.00
68793;BME280;55778;54.346;10.210;2023-01-29T13:13:40;101454.44;;;4.32;100.00
68793;BME280;55778;54.346;10.210;2023-01-29T13:16:11;101448.16;;;4.31;100.00
68793;BME280;55778;54.346;10.210;2023-01-29T13:19:20;101447.97;;;4.34;100.00
68793;BME280;55778;54.346;10.210;2023-01-29T13:21:49;101431.44;;;4.40;100.00
68793;BME280;55778;54.346;10.210;2023-01-29T13:24:19;101433.13;;;4.27;100.00
68793;BME280;55778;54.346;10.210;2023-01-29T13:26:45;101421.53;;;4.25;100.00
68793;BME280;55778;54.346;10.210;2023-01-29T13:29:24;101423.09;;;4.29;100.00
68793;BME280;55778;54.346;10.210;2023-01-29T13:31:52;101414.72;;;4.34;100.00
68793;BME280;55778;54.346;10.210;2023-01-29T13:34:27;101407.59;;;4.33;100.00
68793;BME280;55778;54.346;10.210;2023-01-29T13:37:08;101399.25;;;4.37;100.00
68793;BME280;55778;54.346;10.210;2023-01-29T13:39:36;101410.56;;;4.28;100.00
68793;BME280;55778;54.346;10.210;2023-01-29T13:42:24;101414.41;;;4.24;100.00
68793;BME280;55778;54.346;10.210;2023-01-29T13:44:52;101403.84;;;4.35;100.00
68793;BME280;55778;54.346;10.210;2023-01-29T13:47:35;101391.31;;;4.34;100.00
68793;BME280;55778;54.346;10.210;2023-01-29T13:50:34;101386.28;;;4.28;100.00
68793;BME280;55778;54.346;10.210;2023-01-29T13:53:02;101380.09;;;4.26;100.00
68793;BME280;55778;54.346;10.210;2023-01-29T13:55:34;101377.75;;;4.36;100.00
68793;BME280;55778;54.346;10.210;2023-01-29T14:00:49;101364.19;;;4.22;100.00
68793;BME280;55778;54.346;10.210;2023-01-29T14:05:41;101365.88;;;4.24;100.00
68793;BME280;55778;54.346;10.210;2023-01-29T14:10:42;101369.69;;;4.20;100.00
68793;BME280;55778;54.346;10.210;2023-01-29T14:15:43;101358.22;;;4.17;100.00
68793;BME280;55778;54.346;10.210;2023-01-29T14:18:13;101362.72;;;4.32;100.00
68793;BME280;55778;54.346;10.210;2023-01-29T14:26:02;101356.19;;;4.20;100.00
68793;BME280;55778;54.346;10.210;2023-01-29T14:28:30;101342.72;;;4.20;100.00
68793;BME280;55778;54.346;10.210;2023-01-29T14:30:58;101344.19;;;4.26;100.00
68793;BME280;55778;54.346;10.210;2023-01-29T14:35:54;101355.16;;;4.23;100.00
68793;BME280;55778;54.346;10.210;2023-01-29T14:38:22;101337.72;;;4.28;100.00
68793;BME280;55778;54.346;10.210;2023-01-29T14:40:50;101324.25;;;4.28;100.00
68793;BME280;55778;54.346;10.210;2023-01-29T14:43:26;101320.84;;;4.25;100.00
68793;BME280;55778;54.346;10.210;2023-01-29T14:45:51;101327.41;;;4.21;100.00
68793;BME280;55778;54.346;10.210;2023-01-29T14:48:44;101316.44;;;4.24;100.00
68793;BME280;55778;54.346;10.210;2023-01-29T14:51:13;101320.47;;;4.17;100.00
68793;BME280;55778;54.346;10.210;2023-01-29T14:53:47;101320.19;;;4.21;100.00
68793;BME280;55778;54.346;10.210;2023-01-29T14:58:48;101314.19;;;4.16;100.00
68793;BME280;55778;54.346;10.210;2023-01-29T15:01:25;101319.50;;;4.18;100.00
68793;BME280;55778;54.346;10.210;2023-01-29T15:04:01;101301.50;;;4.18;100.00
68793;BME280;55778;54.346;10.210;2023-01-29T15:06:33;101301.88;;;4.12;100.00
68793;BME280;55778;54.346;10.210;2023-01-29T15:09:11;101314.63;;;4.24;100.00
68793;BME280;55778;54.346;10.210;2023-01-29T15:12:02;101290.72;;;4.18;100.00
68793;BME280;55778;54.346;10.210;2023-01-29T15:14:35;101290.81;;;4.17;100.00
68793;BME280;55778;54.346;10.210;2023-01-29T15:19:34;101278.47;;;4.27;100.00
68793;BME280;55778;54.346;10.210;2023-01-29T15:22:08;101278.56;;;4.25;100.00
68793;BME280;55778;54.346;10.210;2023-01-29T15:24:36;101248.81;;;4.27;100.00
68793;BME280;55778;54.346;10.210;2023-01-29T15:27:02;101257.47;;;4.18;100.00
68793;BME280;55778;54.346;10.210;2023-01-29T15:29:28;101248.31;;;4.20;100.00
68793;BME280;55778;54.346;10.210;2023-01-29T15:31:55;101246.84;;;4.14;100.00
68793;BME280;55778;54.346;10.210;2023-01-29T15:34:21;101240.31;;;4.18;100.00
68793;BME280;55778;54.346;10.210;2023-01-29T15:36:48;101229.84;;;4.28;100.00
68793;BME280;55778;54.346;10.210;2023-01-29T15:39:21;101229.06;;;4.26;100.00
68793;BME280;55778;54.346;10.210;2023-01-29T15:42:41;101229.38;;;4.36;100.00
68793;BME280;55778;54.346;10.210;2023-01-29T15:44:43;101222.16;;;4.36;100.00
68793;BME280;55778;54.346;10.210;2023-01-29T15:47:09;101233.22;;;4.32;100.00
68793;BME280;55778;54.346;10.210;2023-01-29T15:49:36;101228.47;;;4.35;100.00
68793;BME280;55778;54.346;10.210;2023-01-29T15:52:06;101224.16;;;4.33;100.00
68793;BME280;55778;54.346;10.210;2023-01-29T15:54:34;101234.75;;;4.36;100.00